Terminal Aerodrome Forecast
Issued by NWS

Current Version | Previous Version | Text Only | Print | Product List | Glossary On
Versions: 1 2 3 4 5 6 7 8 9 10 11 12 13 14
000
FTUS42 TJSJ 101100
TAFISX
TAF
TISX 101123Z 1012/1112 10014KT P6SM VCSH SCT020 SCT040
     FM101300 10012G20KT P6SM FEW022
     FM102300 06006KT P6SM FEW022=

USA.gov is the U.S. government's official web portal to all federal, state and local government web resources and services.